sensor_id;sensor_type;location;lat;lon;timestamp;pressure;altitude;pressure_sealevel;temperature;humidity
48204;BME280;33994;50.998;5.864;2023-03-03T00:00:36;101768.19;;;0.75;89.25
48204;BME280;33994;50.998;5.864;2023-03-03T00:03:39;101779.44;;;0.77;89.36
48204;BME280;33994;50.998;5.864;2023-03-03T00:06:44;101779.25;;;0.72;89.42
48204;BME280;33994;50.998;5.864;2023-03-03T00:09:48;101773.03;;;0.67;89.70
48204;BME280;33994;50.998;5.864;2023-03-03T00:12:51;101772.91;;;0.64;90.03
48204;BME280;33994;50.998;5.864;2023-03-03T00:15:59;101780.56;;;0.62;89.98
48204;BME280;33994;50.998;5.864;2023-03-03T00:19:14;101780.41;;;0.58;90.14
48204;BME280;33994;50.998;5.864;2023-03-03T00:22:27;101779.34;;;0.53;90.22
48204;BME280;33994;50.998;5.864;2023-03-03T00:25:33;101780.91;;;0.49;90.51
48204;BME280;33994;50.998;5.864;2023-03-03T00:28:43;101780.00;;;0.49;91.26
48204;BME280;33994;50.998;5.864;2023-03-03T00:31:48;101778.94;;;0.43;90.75
48204;BME280;33994;50.998;5.864;2023-03-03T00:34:52;101784.03;;;0.42;91.37
48204;BME280;33994;50.998;5.864;2023-03-03T00:37:58;101773.59;;;0.39;91.44
48204;BME280;33994;50.998;5.864;2023-03-03T00:41:05;101778.75;;;0.39;91.52
48204;BME280;33994;50.998;5.864;2023-03-03T00:44:37;101783.75;;;0.36;91.63
48204;BME280;33994;50.998;5.864;2023-03-03T00:47:42;101798.28;;;0.34;91.71
48204;BME280;33994;50.998;5.864;2023-03-03T00:50:45;101791.16;;;0.28;91.77
48204;BME280;33994;50.998;5.864;2023-03-03T00:53:50;101799.63;;;0.26;92.45
48204;BME280;33994;50.998;5.864;2023-03-03T00:56:53;101802.09;;;0.23;91.92
48204;BME280;33994;50.998;5.864;2023-03-03T00:59:56;101798.41;;;0.17;92.67
48204;BME280;33994;50.998;5.864;2023-03-03T01:03:01;101803.44;;;0.14;92.77
48204;BME280;33994;50.998;5.864;2023-03-03T01:06:05;101800.84;;;0.14;92.99
48204;BME280;33994;50.998;5.864;2023-03-03T01:09:10;101800.84;;;0.14;93.45
48204;BME280;33994;50.998;5.864;2023-03-03T01:12:13;101791.38;;;0.13;93.07
48204;BME280;33994;50.998;5.864;2023-03-03T01:15:17;101805.91;;;0.11;93.50
48204;BME280;33994;50.998;5.864;2023-03-03T01:18:20;101817.78;;;0.09;94.04
48204;BME280;33994;50.998;5.864;2023-03-03T01:21:24;101818.53;;;0.07;94.04
48204;BME280;33994;50.998;5.864;2023-03-03T01:24:28;101811.72;;;0.07;93.67
48204;BME280;33994;50.998;5.864;2023-03-03T01:27:31;101810.72;;;0.04;94.71
48204;BME280;33994;50.998;5.864;2023-03-03T01:30:36;101816.59;;;0.01;94.48
48204;BME280;33994;50.998;5.864;2023-03-03T01:33:39;101821.59;;;-0.02;94.39
48204;BME280;33994;50.998;5.864;2023-03-03T01:36:42;101823.22;;;-0.04;94.58
48204;BME280;33994;50.998;5.864;2023-03-03T01:39:49;101821.72;;;0.01;94.63
48204;BME280;33994;50.998;5.864;2023-03-03T01:42:51;101829.50;;;0.03;94.46
48204;BME280;33994;50.998;5.864;2023-03-03T01:46:26;101829.06;;;-0.08;95.18
48204;BME280;33994;50.998;5.864;2023-03-03T01:49:34;101825.22;;;-0.16;94.71
48204;BME280;33994;50.998;5.864;2023-03-03T01:52:41;101827.81;;;-0.16;94.97
48204;BME280;33994;50.998;5.864;2023-03-03T01:55:47;101832.94;;;-0.16;94.74
48204;BME280;33994;50.998;5.864;2023-03-03T01:58:57;101826.25;;;-0.13;95.18
48204;BME280;33994;50.998;5.864;2023-03-03T02:02:01;101827.94;;;-0.13;94.94
48204;BME280;33994;50.998;5.864;2023-03-03T02:05:06;101819.44;;;-0.12;95.29
48204;BME280;33994;50.998;5.864;2023-03-03T02:08:11;101822.66;;;-0.16;95.37
48204;BME280;33994;50.998;5.864;2023-03-03T02:11:20;101826.81;;;-0.20;95.02
48204;BME280;33994;50.998;5.864;2023-03-03T02:14:24;101820.78;;;-0.20;95.05
48204;BME280;33994;50.998;5.864;2023-03-03T02:17:27;101822.47;;;-0.21;95.43
48204;BME280;33994;50.998;5.864;2023-03-03T02:20:43;101827.06;;;-0.14;95.23
48204;BME280;33994;50.998;5.864;2023-03-03T02:23:51;101828.22;;;-0.07;94.98
48204;BME280;33994;50.998;5.864;2023-03-03T02:26:56;101832.50;;;-0.08;94.89
48204;BME280;33994;50.998;5.864;2023-03-03T02:30:08;101824.97;;;-0.03;95.23
48204;BME280;33994;50.998;5.864;2023-03-03T02:33:12;101827.84;;;0.03;94.62
48204;BME280;33994;50.998;5.864;2023-03-03T02:36:18;101824.34;;;0.03;94.48
48204;BME280;33994;50.998;5.864;2023-03-03T02:39:23;101838.88;;;0.01;94.56
48204;BME280;33994;50.998;5.864;2023-03-03T02:42:28;101843.81;;;-0.04;94.57
48204;BME280;33994;50.998;5.864;2023-03-03T02:45:32;101838.53;;;-0.07;94.82
48204;BME280;33994;50.998;5.864;2023-03-03T02:48:36;101851.91;;;-0.14;94.20
48204;BME280;33994;50.998;5.864;2023-03-03T02:51:39;101846.91;;;-0.11;94.49
48204;BME280;33994;50.998;5.864;2023-03-03T02:54:43;101841.63;;;-0.14;95.00
48204;BME280;33994;50.998;5.864;2023-03-03T02:57:47;101844.88;;;-0.18;95.02
48204;BME280;33994;50.998;5.864;2023-03-03T03:00:51;101836.97;;;-0.23;95.40
48204;BME280;33994;50.998;5.864;2023-03-03T03:03:53;101833.50;;;-0.23;95.01
48204;BME280;33994;50.998;5.864;2023-03-03T03:06:56;101844.88;;;-0.18;95.32
48204;BME280;33994;50.998;5.864;2023-03-03T03:09:59;101854.28;;;-0.19;94.99
48204;BME280;33994;50.998;5.864;2023-03-03T03:13:04;101866.13;;;-0.22;95.13
48204;BME280;33994;50.998;5.864;2023-03-03T03:16:07;101856.50;;;-0.27;95.37
48204;BME280;33994;50.998;5.864;2023-03-03T03:19:10;101845.06;;;-0.33;95.60
48204;BME280;33994;50.998;5.864;2023-03-03T03:22:13;101847.84;;;-0.29;95.80
48204;BME280;33994;50.998;5.864;2023-03-03T03:25:16;101847.84;;;-0.29;95.15
48204;BME280;33994;50.998;5.864;2023-03-03T03:28:21;101846.06;;;-0.30;95.53
48204;BME280;33994;50.998;5.864;2023-03-03T03:31:24;101851.22;;;-0.30;95.43
48204;BME280;33994;50.998;5.864;2023-03-03T03:34:27;101853.84;;;-0.28;95.27
48204;BME280;33994;50.998;5.864;2023-03-03T03:37:30;101856.31;;;-0.31;95.25
48204;BME280;33994;50.998;5.864;2023-03-03T03:40:33;101857.72;;;-0.38;94.97
48204;BME280;33994;50.998;5.864;2023-03-03T03:43:38;101851.69;;;-0.38;95.02
48204;BME280;33994;50.998;5.864;2023-03-03T03:46:42;101850.81;;;-0.39;95.15
48204;BME280;33994;50.998;5.864;2023-03-03T03:49:44;101854.13;;;-0.41;95.36
48204;BME280;33994;50.998;5.864;2023-03-03T03:52:48;101859.25;;;-0.41;95.76
48204;BME280;33994;50.998;5.864;2023-03-03T03:55:51;101856.06;;;-0.36;96.13
48204;BME280;33994;50.998;5.864;2023-03-03T03:58:56;101861.50;;;-0.30;95.60
48204;BME280;33994;50.998;5.864;2023-03-03T04:01:59;101862.31;;;-0.31;95.58
48204;BME280;33994;50.998;5.864;2023-03-03T04:05:03;101863.09;;;-0.32;95.61
48204;BME280;33994;50.998;5.864;2023-03-03T04:08:06;101850.50;;;-0.27;95.95
48204;BME280;33994;50.998;5.864;2023-03-03T04:11:09;101858.25;;;-0.25;95.36
48204;BME280;33994;50.998;5.864;2023-03-03T04:14:13;101866.66;;;-0.30;95.29
48204;BME280;33994;50.998;5.864;2023-03-03T04:17:17;101857.19;;;-0.31;95.89
48204;BME280;33994;50.998;5.864;2023-03-03T04:20:20;101866.50;;;-0.33;95.49
48204;BME280;33994;50.998;5.864;2023-03-03T04:23:24;101870.03;;;-0.31;95.53
48204;BME280;33994;50.998;5.864;2023-03-03T04:26:27;101860.63;;;-0.30;95.23
48204;BME280;33994;50.998;5.864;2023-03-03T04:29:31;101865.91;;;-0.27;95.33
48204;BME280;33994;50.998;5.864;2023-03-03T04:32:35;101870.28;;;-0.24;94.97
48204;BME280;33994;50.998;5.864;2023-03-03T04:35:38;101871.78;;;-0.30;95.07
48204;BME280;33994;50.998;5.864;2023-03-03T04:38:41;101868.53;;;-0.25;94.96
48204;BME280;33994;50.998;5.864;2023-03-03T04:41:44;101875.38;;;-0.26;95.05
48204;BME280;33994;50.998;5.864;2023-03-03T04:44:49;101873.84;;;-0.22;95.11
48204;BME280;33994;50.998;5.864;2023-03-03T04:47:52;101869.72;;;-0.19;95.16
48204;BME280;33994;50.998;5.864;2023-03-03T04:53:18;101873.97;;;-0.19;95.11
48204;BME280;33994;50.998;5.864;2023-03-03T04:56:21;101878.25;;;-0.20;94.74
48204;BME280;33994;50.998;5.864;2023-03-03T04:59:24;101886.00;;;-0.18;94.46
48204;BME280;33994;50.998;5.864;2023-03-03T05:02:27;101891.16;;;-0.18;94.64
48204;BME280;33994;50.998;5.864;2023-03-03T05:05:30;101894.75;;;-0.15;94.87
48204;BME280;33994;50.998;5.864;2023-03-03T05:08:35;101898.06;;;-0.17;94.94
48204;BME280;33994;50.998;5.864;2023-03-03T05:11:39;101902.94;;;-0.23;94.63
48204;BME280;33994;50.998;5.864;2023-03-03T05:14:42;101901.00;;;-0.28;94.62
48204;BME280;33994;50.998;5.864;2023-03-03T05:17:45;101904.38;;;-0.29;94.93
48204;BME280;33994;50.998;5.864;2023-03-03T05:20:49;101901.81;;;-0.29;94.68
48204;BME280;33994;50.998;5.864;2023-03-03T05:23:53;101895.81;;;-0.29;95.11
48204;BME280;33994;50.998;5.864;2023-03-03T05:26:56;101896.69;;;-0.29;94.74
48204;BME280;33994;50.998;5.864;2023-03-03T05:29:59;101898.56;;;-0.24;94.89
48204;BME280;33994;50.998;5.864;2023-03-03T05:33:02;101889.25;;;-0.22;94.76
48204;BME280;33994;50.998;5.864;2023-03-03T05:36:06;101902.78;;;-0.27;94.88
48204;BME280;33994;50.998;5.864;2023-03-03T05:39:11;101900.13;;;-0.28;94.58
48204;BME280;33994;50.998;5.864;2023-03-03T05:42:14;101905.41;;;-0.25;94.35
48204;BME280;33994;50.998;5.864;2023-03-03T05:45:18;101901.38;;;-0.20;94.62
48204;BME280;33994;50.998;5.864;2023-03-03T05:48:21;101903.19;;;-0.17;94.07
48204;BME280;33994;50.998;5.864;2023-03-03T05:51:24;101903.34;;;-0.14;93.96
48204;BME280;33994;50.998;5.864;2023-03-03T05:54:30;101901.44;;;-0.18;94.31
48204;BME280;33994;50.998;5.864;2023-03-03T05:57:33;101899.69;;;-0.19;94.30
48204;BME280;33994;50.998;5.864;2023-03-03T06:00:36;101911.59;;;-0.21;94.31
48204;BME280;33994;50.998;5.864;2023-03-03T06:03:39;101907.59;;;-0.15;94.42
48204;BME280;33994;50.998;5.864;2023-03-03T06:06:42;101911.72;;;-0.18;94.44
48204;BME280;33994;50.998;5.864;2023-03-03T06:09:46;101912.56;;;-0.19;94.20
48204;BME280;33994;50.998;5.864;2023-03-03T06:12:49;101924.44;;;-0.21;94.57
48204;BME280;33994;50.998;5.864;2023-03-03T06:15:52;101916.56;;;-0.24;94.28
48204;BME280;33994;50.998;5.864;2023-03-03T06:18:56;101919.16;;;-0.24;94.57
48204;BME280;33994;50.998;5.864;2023-03-03T06:21:59;101917.19;;;-0.30;94.89
48204;BME280;33994;50.998;5.864;2023-03-03T06:25:04;101926.66;;;-0.29;94.58
48204;BME280;33994;50.998;5.864;2023-03-03T06:28:08;101931.59;;;-0.34;94.73
48204;BME280;33994;50.998;5.864;2023-03-03T06:31:11;101931.28;;;-0.40;94.96
48204;BME280;33994;50.998;5.864;2023-03-03T06:34:14;101933.94;;;-0.38;95.33
48204;BME280;33994;50.998;5.864;2023-03-03T06:37:17;101933.94;;;-0.38;95.32
48204;BME280;33994;50.998;5.864;2023-03-03T06:40:22;101936.06;;;-0.47;95.21
48204;BME280;33994;50.998;5.864;2023-03-03T06:43:25;101941.88;;;-0.52;95.09
48204;BME280;33994;50.998;5.864;2023-03-03T06:46:28;101945.09;;;-0.56;95.07
48204;BME280;33994;50.998;5.864;2023-03-03T06:49:31;101949.16;;;-0.61;95.78
48204;BME280;33994;50.998;5.864;2023-03-03T06:52:35;101957.50;;;-0.65;95.26
48204;BME280;33994;50.998;5.864;2023-03-03T06:55:40;101961.78;;;-0.65;95.53
48204;BME280;33994;50.998;5.864;2023-03-03T06:58:43;101966.97;;;-0.64;96.04
48204;BME280;33994;50.998;5.864;2023-03-03T07:01:47;101971.53;;;-0.58;95.90
48204;BME280;33994;50.998;5.864;2023-03-03T07:04:52;101980.19;;;-0.56;95.41
48204;BME280;33994;50.998;5.864;2023-03-03T07:07:57;101991.06;;;-0.62;95.92
48204;BME280;33994;50.998;5.864;2023-03-03T07:11:07;101981.34;;;-0.67;95.46
48204;BME280;33994;50.998;5.864;2023-03-03T07:14:17;101994.22;;;-0.67;95.79
48204;BME280;33994;50.998;5.864;2023-03-03T07:17:22;101986.50;;;-0.67;95.66
48204;BME280;33994;50.998;5.864;2023-03-03T07:20:31;101995.19;;;-0.65;95.39
48204;BME280;33994;50.998;5.864;2023-03-03T07:23:36;102000.44;;;-0.62;96.00
48204;BME280;33994;50.998;5.864;2023-03-03T07:26:41;101999.72;;;-0.60;95.88
48204;BME280;33994;50.998;5.864;2023-03-03T07:29:45;101999.88;;;-0.57;95.54
48204;BME280;33994;50.998;5.864;2023-03-03T07:32:51;102004.16;;;-0.57;95.35
48204;BME280;33994;50.998;5.864;2023-03-03T07:35:56;102009.56;;;-0.51;95.77
48204;BME280;33994;50.998;5.864;2023-03-03T07:39:00;102014.84;;;-0.48;95.90
48204;BME280;33994;50.998;5.864;2023-03-03T07:42:20;102011.47;;;-0.47;96.33
48204;BME280;33994;50.998;5.864;2023-03-03T07:45:26;102019.28;;;-0.45;96.18
48204;BME280;33994;50.998;5.864;2023-03-03T07:48:34;102018.53;;;-0.43;96.42
48204;BME280;33994;50.998;5.864;2023-03-03T07:51:39;102019.72;;;-0.36;96.44
48204;BME280;33994;50.998;5.864;2023-03-03T07:54:43;102027.38;;;-0.38;96.43
48204;BME280;33994;50.998;5.864;2023-03-03T07:57:50;102023.09;;;-0.37;95.97
48204;BME280;33994;50.998;5.864;2023-03-03T08:04:36;102032.50;;;-0.38;95.77
48204;BME280;33994;50.998;5.864;2023-03-03T08:07:41;102030.75;;;-0.39;95.78
48204;BME280;33994;50.998;5.864;2023-03-03T08:10:46;102037.88;;;-0.33;95.66
48204;BME280;33994;50.998;5.864;2023-03-03T08:13:52;102036.78;;;-0.38;95.28
48204;BME280;33994;50.998;5.864;2023-03-03T08:16:55;102040.13;;;-0.39;95.53
48204;BME280;33994;50.998;5.864;2023-03-03T08:19:58;102051.44;;;-0.36;95.58
48204;BME280;33994;50.998;5.864;2023-03-03T08:23:02;102056.59;;;-0.36;94.74
48204;BME280;33994;50.998;5.864;2023-03-03T08:26:05;102047.84;;;-0.39;94.67
48204;BME280;33994;50.998;5.864;2023-03-03T08:29:10;102058.06;;;-0.41;94.20
48204;BME280;33994;50.998;5.864;2023-03-03T08:32:13;102052.75;;;-0.44;94.57
48204;BME280;33994;50.998;5.864;2023-03-03T08:35:16;102065.03;;;-0.38;93.90
48204;BME280;33994;50.998;5.864;2023-03-03T08:38:20;102065.09;;;-0.37;93.75
48204;BME280;33994;50.998;5.864;2023-03-03T08:41:24;102067.63;;;-0.38;93.93
48204;BME280;33994;50.998;5.864;2023-03-03T08:44:28;102070.19;;;-0.38;93.26
48204;BME280;33994;50.998;5.864;2023-03-03T08:47:31;102071.94;;;-0.37;93.51
48204;BME280;33994;50.998;5.864;2023-03-03T08:50:34;102074.50;;;-0.37;93.49
48204;BME280;33994;50.998;5.864;2023-03-03T08:53:37;102083.91;;;-0.38;93.42
48204;BME280;33994;50.998;5.864;2023-03-03T08:56:41;102086.50;;;-0.38;93.73
48204;BME280;33994;50.998;5.864;2023-03-03T08:59:45;102086.56;;;-0.36;93.60
48204;BME280;33994;50.998;5.864;2023-03-03T09:02:48;102085.91;;;-0.32;93.35
48204;BME280;33994;50.998;5.864;2023-03-03T09:05:52;102092.72;;;-0.33;93.14
48204;BME280;33994;50.998;5.864;2023-03-03T09:08:55;102093.09;;;-0.25;93.00
48204;BME280;33994;50.998;5.864;2023-03-03T09:12:14;102095.25;;;-0.16;92.84
48204;BME280;33994;50.998;5.864;2023-03-03T09:15:23;102096.22;;;-0.14;92.72
48204;BME280;33994;50.998;5.864;2023-03-03T09:18:30;102103.22;;;-0.12;92.07
48204;BME280;33994;50.998;5.864;2023-03-03T09:21:34;102106.81;;;-0.08;91.95
48204;BME280;33994;50.998;5.864;2023-03-03T09:24:37;102098.34;;;-0.06;91.92
48204;BME280;33994;50.998;5.864;2023-03-03T09:27:40;102108.72;;;-0.04;91.61
48204;BME280;33994;50.998;5.864;2023-03-03T09:30:48;102106.94;;;-0.05;91.44
48204;BME280;33994;50.998;5.864;2023-03-03T09:33:52;102107.09;;;-0.02;90.94
48204;BME280;33994;50.998;5.864;2023-03-03T09:36:55;102103.06;;;0.03;91.02
48204;BME280;33994;50.998;5.864;2023-03-03T09:39:58;102101.59;;;0.08;91.00
48204;BME280;33994;50.998;5.864;2023-03-03T09:43:03;102102.63;;;0.12;90.50
48204;BME280;33994;50.998;5.864;2023-03-03T09:46:13;102105.19;;;0.12;90.04
48204;BME280;33994;50.998;5.864;2023-03-03T09:49:27;102110.41;;;0.13;89.69
48204;BME280;33994;50.998;5.864;2023-03-03T09:52:40;102103.66;;;0.15;89.29
48204;BME280;33994;50.998;5.864;2023-03-03T09:55:53;102113.44;;;0.23;89.47
48204;BME280;33994;50.998;5.864;2023-03-03T09:59:13;102110.09;;;0.25;88.93
48204;BME280;33994;50.998;5.864;2023-03-03T10:02:30;102113.03;;;0.33;88.83
48204;BME280;33994;50.998;5.864;2023-03-03T10:05:43;102106.44;;;0.38;88.61
48204;BME280;33994;50.998;5.864;2023-03-03T10:09:09;102108.34;;;0.42;88.08
48204;BME280;33994;50.998;5.864;2023-03-03T10:12:24;102117.53;;;0.74;89.83
48204;BME280;33994;50.998;5.864;2023-03-03T10:15:39;102111.47;;;1.11;88.99
48204;BME280;33994;50.998;5.864;2023-03-03T10:18:55;102110.25;;;1.62;86.13
48204;BME280;33994;50.998;5.864;2023-03-03T10:22:06;102110.38;;;2.07;83.96
48204;BME280;33994;50.998;5.864;2023-03-03T10:25:25;102124.06;;;2.27;82.61
48204;BME280;33994;50.998;5.864;2023-03-03T10:32:41;102121.97;;;2.39;79.98
48204;BME280;33994;50.998;5.864;2023-03-03T10:35:58;102126.06;;;2.55;78.94
48204;BME280;33994;50.998;5.864;2023-03-03T10:39:19;102124.63;;;2.41;79.39
48204;BME280;33994;50.998;5.864;2023-03-03T10:42:42;102124.66;;;2.87;78.02
48204;BME280;33994;50.998;5.864;2023-03-03T10:46:01;102119.34;;;2.83;78.27
48204;BME280;33994;50.998;5.864;2023-03-03T10:49:25;102123.25;;;2.73;77.80
48204;BME280;33994;50.998;5.864;2023-03-03T10:52:38;102121.63;;;2.30;78.57
48204;BME280;33994;50.998;5.864;2023-03-03T10:55:53;102118.28;;;2.12;79.36
48204;BME280;33994;50.998;5.864;2023-03-03T10:59:04;102113.38;;;1.97;80.05
48204;BME280;33994;50.998;5.864;2023-03-03T11:02:17;102120.59;;;1.83;80.38
48204;BME280;33994;50.998;5.864;2023-03-03T11:05:31;102111.47;;;2.35;79.66
48204;BME280;33994;50.998;5.864;2023-03-03T11:08:42;102119.00;;;2.51;78.70
48204;BME280;33994;50.998;5.864;2023-03-03T11:11:52;102139.00;;;2.57;78.38
48204;BME280;33994;50.998;5.864;2023-03-03T11:15:12;102129.69;;;2.60;77.65
48204;BME280;33994;50.998;5.864;2023-03-03T11:18:34;102122.69;;;2.58;77.33
48204;BME280;33994;50.998;5.864;2023-03-03T11:21:45;102121.56;;;2.74;77.38
48204;BME280;33994;50.998;5.864;2023-03-03T11:24:58;102128.09;;;2.64;76.63
48204;BME280;33994;50.998;5.864;2023-03-03T11:28:13;102121.91;;;2.38;77.32
48204;BME280;33994;50.998;5.864;2023-03-03T11:31:26;102115.63;;;2.31;77.85
48204;BME280;33994;50.998;5.864;2023-03-03T11:34:48;102116.72;;;2.15;78.34
48204;BME280;33994;50.998;5.864;2023-03-03T11:37:59;102117.25;;;2.07;79.04
48204;BME280;33994;50.998;5.864;2023-03-03T11:41:13;102106.47;;;1.96;79.43
48204;BME280;33994;50.998;5.864;2023-03-03T11:44:22;102113.16;;;1.91;79.14
48204;BME280;33994;50.998;5.864;2023-03-03T11:47:32;102111.19;;;1.85;79.49
48204;BME280;33994;50.998;5.864;2023-03-03T11:50:42;102110.13;;;1.80;79.86
48204;BME280;33994;50.998;5.864;2023-03-03T11:53:56;102107.59;;;1.82;80.05
48204;BME280;33994;50.998;5.864;2023-03-03T11:57:12;102111.00;;;1.81;79.91
48204;BME280;33994;50.998;5.864;2023-03-03T12:00:23;102112.66;;;1.79;80.05
48204;BME280;33994;50.998;5.864;2023-03-03T12:03:30;102118.69;;;1.79;79.85
48204;BME280;33994;50.998;5.864;2023-03-03T12:06:49;102109.00;;;1.74;80.35
48204;BME280;33994;50.998;5.864;2023-03-03T12:10:13;102109.94;;;1.76;80.13
48204;BME280;33994;50.998;5.864;2023-03-03T12:13:26;102104.22;;;1.83;80.16
48204;BME280;33994;50.998;5.864;2023-03-03T12:16:39;102106.22;;;1.90;79.91
48204;BME280;33994;50.998;5.864;2023-03-03T12:19:51;102097.69;;;1.91;79.63
48204;BME280;33994;50.998;5.864;2023-03-03T12:23:10;102095.91;;;1.90;79.78
48204;BME280;33994;50.998;5.864;2023-03-03T12:26:23;102094.16;;;1.89;79.71
48204;BME280;33994;50.998;5.864;2023-03-03T12:29:35;102085.34;;;1.84;79.66
48204;BME280;33994;50.998;5.864;2023-03-03T12:33:04;102092.38;;;1.88;79.64
48204;BME280;33994;50.998;5.864;2023-03-03T12:36:19;102084.97;;;1.96;79.86
48204;BME280;33994;50.998;5.864;2023-03-03T12:39:39;102089.47;;;2.01;79.57
48204;BME280;33994;50.998;5.864;2023-03-03T12:42:56;102084.38;;;2.03;79.35
48204;BME280;33994;50.998;5.864;2023-03-03T12:46:06;102086.88;;;2.01;79.64
48204;BME280;33994;50.998;5.864;2023-03-03T12:49:14;102078.47;;;2.05;79.46
48204;BME280;33994;50.998;5.864;2023-03-03T12:52:23;102080.16;;;2.05;79.28
48204;BME280;33994;50.998;5.864;2023-03-03T12:55:36;102082.84;;;2.08;79.34
48204;BME280;33994;50.998;5.864;2023-03-03T12:58:51;102074.50;;;2.13;79.29
48204;BME280;33994;50.998;5.864;2023-03-03T13:05:45;102084.13;;;2.17;79.15
48204;BME280;33994;50.998;5.864;2023-03-03T13:09:00;102081.59;;;2.19;79.39
48204;BME280;33994;50.998;5.864;2023-03-03T13:12:21;102073.97;;;2.22;78.90
48204;BME280;33994;50.998;5.864;2023-03-03T13:15:34;102067.09;;;2.23;79.03
48204;BME280;33994;50.998;5.864;2023-03-03T13:18:50;102063.69;;;2.24;78.61
48204;BME280;33994;50.998;5.864;2023-03-03T13:21:58;102069.81;;;2.26;78.84
48204;BME280;33994;50.998;5.864;2023-03-03T13:25:06;102069.16;;;2.31;78.65
48204;BME280;33994;50.998;5.864;2023-03-03T13:28:17;102073.56;;;2.34;78.39
48204;BME280;33994;50.998;5.864;2023-03-03T13:31:28;102069.34;;;2.36;78.87
48204;BME280;33994;50.998;5.864;2023-03-03T13:34:45;102063.47;;;2.40;78.46
48204;BME280;33994;50.998;5.864;2023-03-03T13:37:54;102061.94;;;2.45;78.36
48204;BME280;33994;50.998;5.864;2023-03-03T13:41:06;102066.97;;;2.42;78.17
48204;BME280;33994;50.998;5.864;2023-03-03T13:44:17;102065.78;;;2.32;78.25
48204;BME280;33994;50.998;5.864;2023-03-03T13:47:27;102065.09;;;2.38;78.44
48204;BME280;33994;50.998;5.864;2023-03-03T13:50:37;102064.19;;;2.36;78.00
48204;BME280;33994;50.998;5.864;2023-03-03T13:53:52;102058.19;;;2.37;78.23
48204;BME280;33994;50.998;5.864;2023-03-03T13:57:16;102054.03;;;2.40;78.47
48204;BME280;33994;50.998;5.864;2023-03-03T14:00:29;102056.78;;;2.45;78.25
48204;BME280;33994;50.998;5.864;2023-03-03T14:03:46;102055.03;;;2.44;78.58
48204;BME280;33994;50.998;5.864;2023-03-03T14:07:02;102051.75;;;2.48;78.28
48204;BME280;33994;50.998;5.864;2023-03-03T14:10:13;102057.53;;;2.42;78.20
48204;BME280;33994;50.998;5.864;2023-03-03T14:13:22;102045.63;;;2.46;78.31
48204;BME280;33994;50.998;5.864;2023-03-03T14:16:49;102050.06;;;2.50;78.56
48204;BME280;33994;50.998;5.864;2023-03-03T14:20:01;102049.91;;;2.46;78.10
48204;BME280;33994;50.998;5.864;2023-03-03T14:23:12;102042.13;;;2.44;78.32
48204;BME280;33994;50.998;5.864;2023-03-03T14:26:18;102044.69;;;2.44;78.34
48204;BME280;33994;50.998;5.864;2023-03-03T14:29:30;102047.44;;;2.49;78.46
48204;BME280;33994;50.998;5.864;2023-03-03T14:32:33;102046.69;;;2.51;78.36
48204;BME280;33994;50.998;5.864;2023-03-03T14:35:38;102045.75;;;2.49;78.08
48204;BME280;33994;50.998;5.864;2023-03-03T14:38:46;102040.53;;;2.48;78.43
48204;BME280;33994;50.998;5.864;2023-03-03T14:41:50;102028.38;;;2.45;78.62
48204;BME280;33994;50.998;5.864;2023-03-03T14:44:54;102030.13;;;2.46;78.72
48204;BME280;33994;50.998;5.864;2023-03-03T14:47:59;102018.16;;;2.48;78.86
48204;BME280;33994;50.998;5.864;2023-03-03T14:51:22;102012.16;;;2.49;78.74
48204;BME280;33994;50.998;5.864;2023-03-03T14:54:29;102011.44;;;2.53;78.92
48204;BME280;33994;50.998;5.864;2023-03-03T14:57:38;102015.00;;;2.55;78.78
48204;BME280;33994;50.998;5.864;2023-03-03T15:00:42;102012.41;;;2.55;78.52
48204;BME280;33994;50.998;5.864;2023-03-03T15:03:47;102011.44;;;2.53;78.75
48204;BME280;33994;50.998;5.864;2023-03-03T15:06:53;102012.41;;;2.55;78.89
48204;BME280;33994;50.998;5.864;2023-03-03T15:09:59;102013.31;;;2.57;78.79
48204;BME280;33994;50.998;5.864;2023-03-03T15:13:23;102012.56;;;2.60;78.84
48204;BME280;33994;50.998;5.864;2023-03-03T15:16:33;102007.44;;;2.61;78.91
48204;BME280;33994;50.998;5.864;2023-03-03T15:19:43;102006.63;;;2.62;78.78
48204;BME280;33994;50.998;5.864;2023-03-03T15:22:51;102000.66;;;2.63;78.74
48204;BME280;33994;50.998;5.864;2023-03-03T15:26:03;102002.50;;;2.67;78.73
48204;BME280;33994;50.998;5.864;2023-03-03T15:29:15;102005.13;;;2.69;78.81
48204;BME280;33994;50.998;5.864;2023-03-03T15:32:22;101996.50;;;2.69;78.76
48204;BME280;33994;50.998;5.864;2023-03-03T15:35:35;101996.66;;;2.73;79.11
48204;BME280;33994;50.998;5.864;2023-03-03T15:38:49;101989.13;;;2.78;78.73
48204;BME280;33994;50.998;5.864;2023-03-03T15:42:01;101990.91;;;2.80;78.57
48204;BME280;33994;50.998;5.864;2023-03-03T15:45:14;101985.88;;;2.85;78.89
48204;BME280;33994;50.998;5.864;2023-03-03T15:48:40;101984.97;;;2.83;78.48
48204;BME280;33994;50.998;5.864;2023-03-03T15:52:04;101990.28;;;2.87;78.35
48204;BME280;33994;50.998;5.864;2023-03-03T15:55:23;101987.75;;;2.89;78.18
48204;BME280;33994;50.998;5.864;2023-03-03T15:58:55;101987.75;;;2.89;78.09
48204;BME280;33994;50.998;5.864;2023-03-03T16:02:14;101991.16;;;2.88;77.97
48204;BME280;33994;50.998;5.864;2023-03-03T16:05:22;101993.81;;;2.89;78.29
48204;BME280;33994;50.998;5.864;2023-03-03T16:08:29;101986.00;;;2.88;78.39
48204;BME280;33994;50.998;5.864;2023-03-03T16:11:39;101985.25;;;2.90;77.92
48204;BME280;33994;50.998;5.864;2023-03-03T16:14:56;101993.91;;;2.92;78.17
48204;BME280;33994;50.998;5.864;2023-03-03T16:18:06;101982.78;;;2.94;78.15
48204;BME280;33994;50.998;5.864;2023-03-03T16:21:30;101987.97;;;2.95;78.08
48204;BME280;33994;50.998;5.864;2023-03-03T16:24:44;101987.97;;;2.95;78.13
48204;BME280;33994;50.998;5.864;2023-03-03T16:27:54;101980.19;;;2.94;78.19
48204;BME280;33994;50.998;5.864;2023-03-03T16:31:05;101987.97;;;2.95;78.31
48204;BME280;33994;50.998;5.864;2023-03-03T16:34:14;101986.22;;;2.94;78.25
48204;BME280;33994;50.998;5.864;2023-03-03T16:37:26;101983.69;;;2.96;78.24
48204;BME280;33994;50.998;5.864;2023-03-03T16:40:36;101981.06;;;2.94;78.27
48204;BME280;33994;50.998;5.864;2023-03-03T16:43:57;101984.47;;;2.93;78.34